Time;durP1;ratioP1;P1;durP2;ratioP2;P2;SDS_P1;SDS_P2;PMS_P1;PMS_P2;Temp;Humidity;BMP_temperature;BMP_pressure;BME280_temperature;BME280_humidity;BME280_pressure;Samples;Min_cycle;Max_cycle;Signal;HPM_P1;HPM_P2
2020/12/25 00:00:50;;;;;;;1.27;0.87;;;;;;;;;;5092397;28;20432;-72
2020/12/25 00:03:16;;;;;;;1.60;1.03;;;;;;;;;;5094357;28;20765;-72
2020/12/25 00:05:46;;;;;;;1.33;0.80;;;;;;;;;;5093278;28;20443;-72
2020/12/25 00:08:13;;;;;;;1.27;0.87;;;;;;;;;;5094361;28;20400;-72
2020/12/25 00:10:40;;;;;;;1.30;0.90;;;;;;;;;;5092334;28;20758;-72
2020/12/25 00:13:06;;;;;;;1.80;1.00;;;;;;;;;;5094441;28;20419;-72
2020/12/25 00:15:32;;;;;;;2.67;1.30;;;;;;;;;;5093514;28;20436;-72
2020/12/25 00:17:58;;;;;;;2.17;1.10;;;;;;;;;;5094029;28;20923;-72
2020/12/25 00:20:24;;;;;;;1.70;1.00;;;;;;;;;;5093050;28;20400;-71
2020/12/25 00:22:50;;;;;;;1.30;0.90;;;;;;;;;;5093675;28;20451;-72
2020/12/25 00:25:16;;;;;;;1.33;0.80;;;;;;;;;;5093761;28;20447;-72
2020/12/25 00:27:42;;;;;;;1.27;0.90;;;;;;;;;;5093416;28;20955;-72
2020/12/25 00:30:08;;;;;;;1.40;0.80;;;;;;;;;;5094039;28;20753;-72
2020/12/25 00:32:34;;;;;;;1.30;0.90;;;;;;;;;;5092688;28;20423;-72
2020/12/25 00:34:59;;;;;;;1.30;1.00;;;;;;;;;;5093721;28;20428;-72
2020/12/25 00:37:25;;;;;;;1.50;1.10;;;;;;;;;;5091732;28;20452;-72
2020/12/25 00:39:51;;;;;;;1.93;1.10;;;;;;;;;;5093636;28;20927;-72
2020/12/25 00:42:17;;;;;;;1.40;0.90;;;;;;;;;;5092427;28;20452;-72
2020/12/25 00:44:43;;;;;;;1.40;0.97;;;;;;;;;;5092628;28;20437;-72
2020/12/25 00:47:09;;;;;;;1.40;0.93;;;;;;;;;;5093330;28;20815;-72
2020/12/25 00:49:35;;;;;;;1.87;0.80;;;;;;;;;;5092551;28;20795;-72
2020/12/25 00:52:01;;;;;;;1.30;0.93;;;;;;;;;;5091801;28;20424;-72
2020/12/25 00:54:27;;;;;;;1.23;0.87;;;;;;;;;;5093314;28;20432;-72
2020/12/25 00:56:53;;;;;;;1.60;1.30;;;;;;;;;;5092300;28;20503;-72
2020/12/25 00:59:19;;;;;;;1.70;1.03;;;;;;;;;;5093826;28;20768;-71
2020/12/25 01:01:45;;;;;;;1.40;0.90;;;;;;;;;;5092365;28;20944;-72
2020/12/25 01:04:11;;;;;;;1.63;1.20;;;;;;;;;;5093668;28;20499;-72
2020/12/25 01:06:37;;;;;;;1.57;0.90;;;;;;;;;;5093346;28;20503;-72
2020/12/25 01:09:03;;;;;;;1.40;1.10;;;;;;;;;;5094833;28;20817;-72
2020/12/25 01:11:29;;;;;;;1.60;1.10;;;;;;;;;;5093870;28;20514;-72
2020/12/25 01:13:55;;;;;;;1.60;1.03;;;;;;;;;;5095587;28;20446;-72
2020/12/25 01:16:21;;;;;;;1.40;0.90;;;;;;;;;;5093539;28;20485;-72
2020/12/25 01:18:47;;;;;;;2.57;1.20;;;;;;;;;;5093147;28;20404;-72
2020/12/25 01:21:14;;;;;;;1.87;1.20;;;;;;;;;;5092424;28;20963;-72
2020/12/25 01:23:40;;;;;;;1.50;1.10;;;;;;;;;;5092992;28;20491;-72
2020/12/25 01:26:06;;;;;;;1.30;0.90;;;;;;;;;;5092357;28;20423;-72
2020/12/25 01:28:32;;;;;;;2.57;1.60;;;;;;;;;;5092988;28;20408;-72
2020/12/25 01:30:58;;;;;;;1.43;1.00;;;;;;;;;;5092259;28;20487;-72
2020/12/25 01:33:24;;;;;;;1.90;1.20;;;;;;;;;;5093107;28;20400;-72
2020/12/25 01:35:50;;;;;;;1.53;1.00;;;;;;;;;;5094231;28;20416;-71
2020/12/25 01:38:17;;;;;;;1.40;1.00;;;;;;;;;;5077265;28;20931;-72
2020/12/25 01:40:43;;;;;;;1.50;1.20;;;;;;;;;;5076776;28;20886;-72
2020/12/25 01:43:09;;;;;;;1.50;1.17;;;;;;;;;;5096093;28;20454;-72
2020/12/25 01:45:35;;;;;;;3.50;1.80;;;;;;;;;;5096837;28;20429;-72
2020/12/25 01:48:01;;;;;;;1.80;1.20;;;;;;;;;;5096004;28;20423;-72
2020/12/25 01:50:28;;;;;;;1.70;1.13;;;;;;;;;;5095482;28;20948;-72
2020/12/25 01:52:55;;;;;;;2.20;1.37;;;;;;;;;;5073203;28;20440;-72
2020/12/25 01:55:26;;;;;;;1.60;1.10;;;;;;;;;;5079191;28;20493;-73
2020/12/25 01:57:55;;;;;;;1.83;1.50;;;;;;;;;;5096657;28;20451;-73
2020/12/25 02:00:21;;;;;;;1.70;1.13;;;;;;;;;;5097313;28;20404;-72
2020/12/25 02:02:47;;;;;;;2.00;1.63;;;;;;;;;;5096746;28;20813;-73
2020/12/25 02:05:14;;;;;;;1.67;1.23;;;;;;;;;;5097307;28;20502;-73
2020/12/25 02:07:40;;;;;;;1.60;1.40;;;;;;;;;;5096393;28;20420;-72
2020/12/25 02:10:06;;;;;;;2.30;1.63;;;;;;;;;;5098105;28;20398;-72
2020/12/25 02:12:33;;;;;;;1.90;1.30;;;;;;;;;;5096432;28;20439;-72
2020/12/25 02:14:59;;;;;;;3.20;1.40;;;;;;;;;;5097172;28;20482;-72
2020/12/25 02:17:25;;;;;;;1.70;1.40;;;;;;;;;;5093979;28;20481;-72
2020/12/25 02:19:51;;;;;;;2.20;1.60;;;;;;;;;;5097063;28;20472;-72
2020/12/25 02:22:17;;;;;;;2.03;1.53;;;;;;;;;;5078884;28;20460;-72
2020/12/25 02:24:43;;;;;;;1.77;1.30;;;;;;;;;;5077298;28;20530;-72
2020/12/25 02:27:09;;;;;;;2.40;1.60;;;;;;;;;;5096643;28;20458;-71
2020/12/25 02:29:35;;;;;;;2.70;1.97;;;;;;;;;;5096296;28;20404;-72
2020/12/25 02:32:01;;;;;;;2.00;1.60;;;;;;;;;;5094696;28;20397;-71
2020/12/25 02:34:27;;;;;;;2.20;1.83;;;;;;;;;;5095980;28;20416;-72
2020/12/25 02:36:53;;;;;;;1.80;1.33;;;;;;;;;;5095208;28;20407;-71
2020/12/25 02:39:19;;;;;;;4.53;1.60;;;;;;;;;;5095884;28;20866;-72
2020/12/25 02:41:45;;;;;;;2.93;1.90;;;;;;;;;;5096086;28;20535;-72
2020/12/25 02:44:11;;;;;;;2.10;1.80;;;;;;;;;;5094306;28;20972;-72
2020/12/25 02:46:37;;;;;;;2.60;2.00;;;;;;;;;;5095404;28;20404;-72
2020/12/25 02:49:03;;;;;;;2.40;2.00;;;;;;;;;;5094473;28;20435;-72
2020/12/25 02:51:29;;;;;;;2.20;1.80;;;;;;;;;;5095739;28;20401;-72
2020/12/25 02:53:55;;;;;;;2.80;1.60;;;;;;;;;;5092664;28;20517;-72
2020/12/25 02:56:21;;;;;;;2.50;1.97;;;;;;;;;;5093127;28;20455;-71
2020/12/25 02:58:47;;;;;;;2.47;2.00;;;;;;;;;;5093448;28;20460;-72
2020/12/25 03:01:14;;;;;;;2.00;1.60;;;;;;;;;;5077380;28;20975;-72
2020/12/25 03:03:40;;;;;;;2.30;1.83;;;;;;;;;;5093835;28;20889;-72
2020/12/25 03:06:06;;;;;;;2.33;1.80;;;;;;;;;;5095699;28;20479;-72
2020/12/25 03:08:33;;;;;;;2.00;1.73;;;;;;;;;;5095060;28;20470;-72
2020/12/25 03:10:59;;;;;;;3.13;1.70;;;;;;;;;;5095407;28;20954;-72
2020/12/25 03:13:25;;;;;;;2.53;2.23;;;;;;;;;;5094150;28;20424;-72
2020/12/25 03:15:51;;;;;;;1.93;1.67;;;;;;;;;;5095111;28;20807;-71
2020/12/25 03:18:18;;;;;;;2.30;2.10;;;;;;;;;;5095024;28;20408;-71
2020/12/25 03:20:45;;;;;;;2.10;1.80;;;;;;;;;;5093056;28;20419;-72
2020/12/25 03:23:10;;;;;;;2.40;1.60;;;;;;;;;;5094650;28;20882;-70
2020/12/25 03:25:37;;;;;;;1.73;1.40;;;;;;;;;;5094490;28;20458;-72
2020/12/25 03:28:03;;;;;;;1.60;1.27;;;;;;;;;;5094857;28;20435;-72
2020/12/25 03:30:29;;;;;;;1.63;1.07;;;;;;;;;;5094500;28;20459;-71
2020/12/25 03:32:55;;;;;;;1.40;1.10;;;;;;;;;;5094874;28;20403;-72
2020/12/25 03:35:21;;;;;;;1.97;1.10;;;;;;;;;;5093627;28;20448;-72
2020/12/25 03:37:47;;;;;;;1.50;1.00;;;;;;;;;;5094799;28;20412;-72
2020/12/25 03:40:13;;;;;;;1.67;1.20;;;;;;;;;;5093893;28;20424;-72
2020/12/25 03:42:39;;;;;;;1.77;1.20;;;;;;;;;;5094584;28;20806;-72
2020/12/25 03:45:06;;;;;;;1.53;1.20;;;;;;;;;;5093472;28;20455;-71
2020/12/25 03:47:32;;;;;;;1.30;1.00;;;;;;;;;;5094526;28;20428;-72
2020/12/25 03:49:58;;;;;;;1.40;1.00;;;;;;;;;;5094414;28;20452;-72
2020/12/25 03:52:24;;;;;;;1.40;0.90;;;;;;;;;;5094524;28;20450;-72
2020/12/25 03:54:50;;;;;;;1.50;1.10;;;;;;;;;;5090319;28;20453;-71
2020/12/25 03:57:16;;;;;;;1.60;1.13;;;;;;;;;;5092936;28;20773;-72
2020/12/25 03:59:42;;;;;;;1.30;1.00;;;;;;;;;;5093263;28;20428;-72
2020/12/25 04:02:08;;;;;;;1.70;1.23;;;;;;;;;;5094207;28;20952;-71
2020/12/25 04:04:34;;;;;;;1.50;1.10;;;;;;;;;;5094045;28;20447;-72
2020/12/25 04:07:00;;;;;;;2.00;1.20;;;;;;;;;;5094966;28;20506;-72
2020/12/25 04:09:26;;;;;;;2.07;1.20;;;;;;;;;;5093746;28;20924;-72
2020/12/25 04:11:52;;;;;;;1.30;0.97;;;;;;;;;;5094289;28;20400;-72
2020/12/25 04:14:18;;;;;;;1.40;1.00;;;;;;;;;;5093682;28;20564;-72
2020/12/25 04:16:45;;;;;;;6.23;1.50;;;;;;;;;;5094367;28;20384;-72
2020/12/25 04:19:11;;;;;;;1.40;1.10;;;;;;;;;;5093603;28;20438;-72
2020/12/25 04:21:37;;;;;;;1.40;1.10;;;;;;;;;;5094271;28;20448;-72
2020/12/25 04:24:03;;;;;;;1.43;1.10;;;;;;;;;;5093191;28;20452;-72
2020/12/25 04:26:29;;;;;;;1.40;1.00;;;;;;;;;;5093890;28;20424;-72
2020/12/25 04:28:55;;;;;;;1.30;1.00;;;;;;;;;;5076438;28;20443;-72
2020/12/25 04:31:24;;;;;;;1.47;1.17;;;;;;;;;;5093915;28;21106;-72
2020/12/25 04:33:50;;;;;;;1.50;1.10;;;;;;;;;;5092078;28;20485;-71
2020/12/25 04:36:16;;;;;;;1.57;1.30;;;;;;;;;;5093460;28;20415;-72
2020/12/25 04:38:42;;;;;;;1.50;1.13;;;;;;;;;;5092795;28;20412;-72
2020/12/25 04:41:08;;;;;;;1.30;1.07;;;;;;;;;;5093555;28;20444;-71
2020/12/25 04:43:35;;;;;;;1.80;1.27;;;;;;;;;;5093562;28;20529;-72
2020/12/25 04:46:02;;;;;;;1.30;1.10;;;;;;;;;;5093220;28;21023;-71
2020/12/25 04:48:28;;;;;;;2.23;1.77;;;;;;;;;;5093633;28;20392;-71
2020/12/25 04:50:54;;;;;;;1.37;1.03;;;;;;;;;;5092613;28;20424;-71
2020/12/25 04:53:20;;;;;;;1.50;1.10;;;;;;;;;;5093517;28;20474;-71
2020/12/25 04:55:46;;;;;;;1.30;1.10;;;;;;;;;;5091003;28;20955;-72
2020/12/25 04:58:12;;;;;;;1.77;1.20;;;;;;;;;;5091715;28;20419;-71
2020/12/25 05:00:38;;;;;;;1.50;1.17;;;;;;;;;;5092524;28;20420;-72
2020/12/25 05:03:06;;;;;;;1.70;1.30;;;;;;;;;;5093335;28;20970;-72
2020/12/25 05:05:32;;;;;;;1.30;1.10;;;;;;;;;;5092637;28;20797;-71
2020/12/25 05:08:01;;;;;;;1.80;1.37;;;;;;;;;;5093550;28;20404;-71
2020/12/25 05:10:28;;;;;;;1.50;1.33;;;;;;;;;;5095152;28;20420;-71
2020/12/25 05:12:54;;;;;;;1.40;1.10;;;;;;;;;;5100054;28;20915;-72
2020/12/25 05:15:21;;;;;;;1.57;1.27;;;;;;;;;;5099517;28;21036;-71
2020/12/25 05:17:47;;;;;;;1.30;1.10;;;;;;;;;;5081830;28;20784;-71
2020/12/25 05:20:13;;;;;;;1.40;1.10;;;;;;;;;;5098407;28;20912;-72
2020/12/25 05:22:39;;;;;;;1.50;1.00;;;;;;;;;;5089488;28;21040;-72
2020/12/25 05:25:08;;;;;;;1.40;1.00;;;;;;;;;;5084637;28;20963;-72
2020/12/25 05:27:35;;;;;;;2.17;1.27;;;;;;;;;;5100198;28;20411;-72
2020/12/25 05:30:01;;;;;;;1.50;1.07;;;;;;;;;;5099127;28;20971;-71
2020/12/25 05:32:29;;;;;;;1.60;1.30;;;;;;;;;;5100201;28;20410;-71
2020/12/25 05:34:56;;;;;;;1.50;1.10;;;;;;;;;;5097963;28;20458;-71
2020/12/25 05:37:22;;;;;;;1.60;1.17;;;;;;;;;;5100165;28;20491;-71
2020/12/25 05:39:49;;;;;;;1.70;1.23;;;;;;;;;;5098315;28;20435;-71
2020/12/25 05:42:16;;;;;;;1.53;1.20;;;;;;;;;;5099953;28;20553;-72
2020/12/25 05:44:45;;;;;;;1.67;1.30;;;;;;;;;;5098942;28;20423;-72
2020/12/25 05:47:13;;;;;;;1.63;1.20;;;;;;;;;;5099697;28;20439;-72
2020/12/25 05:49:39;;;;;;;2.33;1.57;;;;;;;;;;5098737;28;20396;-72
2020/12/25 05:52:05;;;;;;;2.17;1.50;;;;;;;;;;5099658;28;20420;-72
2020/12/25 05:54:31;;;;;;;1.70;1.40;;;;;;;;;;5099601;28;20473;-72
2020/12/25 05:56:58;;;;;;;2.20;1.40;;;;;;;;;;5098705;28;20431;-72
2020/12/25 05:59:26;;;;;;;1.90;1.50;;;;;;;;;;5095064;28;20470;-73
2020/12/25 06:01:55;;;;;;;2.37;1.70;;;;;;;;;;5099202;28;20451;-72
2020/12/25 06:04:22;;;;;;;1.90;1.63;;;;;;;;;;5099790;28;20772;-72
2020/12/25 06:06:49;;;;;;;2.90;1.83;;;;;;;;;;5098625;28;20419;-71
2020/12/25 06:09:16;;;;;;;3.23;2.17;;;;;;;;;;5099883;28;20763;-71
2020/12/25 06:11:45;;;;;;;2.73;2.07;;;;;;;;;;5098627;28;20427;-71
2020/12/25 06:14:11;;;;;;;1.97;1.70;;;;;;;;;;5099847;28;20589;-72
2020/12/25 06:16:39;;;;;;;3.03;2.00;;;;;;;;;;5099102;28;20455;-71
2020/12/25 06:19:23;;;;;;;2.43;1.73;;;;;;;;;;5099860;28;20420;-71
2020/12/25 06:21:56;;;;;;;2.43;1.70;;;;;;;;;;5096245;28;20839;-72
2020/12/25 06:24:23;;;;;;;2.60;1.90;;;;;;;;;;5096617;28;20452;-72
2020/12/25 06:26:54;;;;;;;2.63;2.00;;;;;;;;;;5095384;28;20808;-71
2020/12/25 06:29:20;;;;;;;2.40;1.70;;;;;;;;;;5096409;28;20426;-71
2020/12/25 06:31:50;;;;;;;1.93;1.77;;;;;;;;;;5095843;28;20534;-71
2020/12/25 06:34:16;;;;;;;3.17;2.80;;;;;;;;;;5096131;28;20420;-71
2020/12/25 06:36:46;;;;;;;3.10;2.30;;;;;;;;;;5095093;28;20428;-72
2020/12/25 06:39:13;;;;;;;3.60;2.43;;;;;;;;;;5096134;28;20417;-72
2020/12/25 06:41:40;;;;;;;2.90;2.00;;;;;;;;;;5094759;28;20817;-72
2020/12/25 06:44:09;;;;;;;2.73;1.70;;;;;;;;;;5078226;28;20435;-72
2020/12/25 06:46:36;;;;;;;4.40;2.53;;;;;;;;;;5094824;28;20428;-71
2020/12/25 06:49:05;;;;;;;2.73;2.33;;;;;;;;;;5095965;28;20457;-72
2020/12/25 06:51:31;;;;;;;4.40;2.13;;;;;;;;;;5095276;28;20427;-72
2020/12/25 06:53:58;;;;;;;3.60;2.57;;;;;;;;;;5095458;28;20400;-72
2020/12/25 06:56:24;;;;;;;4.10;3.23;;;;;;;;;;5094577;28;20428;-72
2020/12/25 06:58:56;;;;;;;3.70;2.63;;;;;;;;;;5093237;28;20424;-72
2020/12/25 07:01:38;;;;;;;2.80;2.10;;;;;;;;;;5093744;28;20987;-71
2020/12/25 07:04:04;;;;;;;3.60;2.17;;;;;;;;;;5095705;28;20416;-72
2020/12/25 07:06:33;;;;;;;2.60;1.77;;;;;;;;;;5094942;28;20786;-72
2020/12/25 07:09:10;;;;;;;3.00;1.80;;;;;;;;;;5095371;28;20392;-72
2020/12/25 07:11:36;;;;;;;2.77;1.90;;;;;;;;;;5094335;28;20856;-72
2020/12/25 07:14:02;;;;;;;2.90;2.10;;;;;;;;;;5095251;28;20448;-72
2020/12/25 07:16:28;;;;;;;3.37;2.30;;;;;;;;;;5094864;28;20428;-72
2020/12/25 07:18:54;;;;;;;2.50;2.10;;;;;;;;;;5095525;28;20473;-72
2020/12/25 07:21:20;;;;;;;3.60;2.27;;;;;;;;;;5094153;28;20463;-72
2020/12/25 07:23:46;;;;;;;3.30;2.73;;;;;;;;;;5095028;28;20449;-72
2020/12/25 07:26:13;;;;;;;2.90;2.10;;;;;;;;;;5094119;28;20791;-72
2020/12/25 07:28:39;;;;;;;4.27;2.73;;;;;;;;;;5095218;28;20436;-72
2020/12/25 07:31:06;;;;;;;3.60;2.67;;;;;;;;;;5094085;28;20417;-72
2020/12/25 07:33:32;;;;;;;2.53;2.00;;;;;;;;;;5092641;28;20632;-72
2020/12/25 07:35:58;;;;;;;3.03;2.33;;;;;;;;;;5094008;28;20443;-72
2020/12/25 07:38:25;;;;;;;2.33;2.00;;;;;;;;;;5094847;28;20479;-72
2020/12/25 07:40:51;;;;;;;3.90;2.67;;;;;;;;;;5093914;28;20424;-72
2020/12/25 07:43:17;;;;;;;5.03;3.10;;;;;;;;;;5094764;28;20952;-72
2020/12/25 07:45:43;;;;;;;5.30;2.77;;;;;;;;;;5094477;28;20835;-72
2020/12/25 07:48:09;;;;;;;4.07;3.40;;;;;;;;;;5094991;28;20769;-72
2020/12/25 07:50:38;;;;;;;3.80;2.80;;;;;;;;;;5093471;28;21523;-71
2020/12/25 07:53:12;;;;;;;3.37;2.97;;;;;;;;;;5094629;28;20401;-72
2020/12/25 07:55:38;;;;;;;5.20;3.10;;;;;;;;;;5093098;28;20445;-72
2020/12/25 07:58:04;;;;;;;4.10;2.53;;;;;;;;;;5094508;28;20396;-72
2020/12/25 08:00:31;;;;;;;4.70;3.30;;;;;;;;;;5093555;28;20807;-72
2020/12/25 08:02:58;;;;;;;4.40;3.50;;;;;;;;;;5073615;28;20543;-72
2020/12/25 08:05:26;;;;;;;3.50;2.67;;;;;;;;;;5094064;28;20454;-72
2020/12/25 08:07:53;;;;;;;3.67;2.50;;;;;;;;;;5094259;28;20396;-72
2020/12/25 08:10:19;;;;;;;3.63;2.20;;;;;;;;;;5094496;28;20401;-71
2020/12/25 08:12:49;;;;;;;4.93;3.20;;;;;;;;;;5089627;28;20416;-74
2020/12/25 08:15:15;;;;;;;3.67;2.53;;;;;;;;;;5107837;22;20514;-86
2020/12/25 08:17:42;;;;;;;3.60;2.53;;;;;;;;;;5088312;28;20828;-85
2020/12/25 08:20:08;;;;;;;3.97;2.53;;;;;;;;;;5106472;28;20436;-85
2020/12/25 08:22:37;;;;;;;4.40;2.60;;;;;;;;;;5089276;28;20482;-84
2020/12/25 08:25:03;;;;;;;3.80;2.70;;;;;;;;;;5107052;28;20416;-85
2020/12/25 08:27:32;;;;;;;3.67;2.60;;;;;;;;;;5108152;28;20448;-85
2020/12/25 08:30:00;;;;;;;3.60;2.83;;;;;;;;;;5107795;28;20447;-84
2020/12/25 08:32:26;;;;;;;4.75;2.30;;;;;;;;;;5106642;28;20366;-85
2020/12/25 08:35:07;;;;;;;4.17;2.83;;;;;;;;;;5106986;28;20193;-85
2020/12/25 08:37:33;;;;;;;3.57;2.40;;;;;;;;;;5105483;28;20470;-84
2020/12/25 08:40:12;;;;;;;2.80;2.23;;;;;;;;;;5107098;28;20420;-84
2020/12/25 08:42:38;;;;;;;3.47;2.80;;;;;;;;;;5106464;28;20467;-84
2020/12/25 08:45:04;;;;;;;2.80;2.43;;;;;;;;;;5103341;28;20408;-84
2020/12/25 08:47:30;;;;;;;4.33;3.13;;;;;;;;;;5106877;28;20468;-84
2020/12/25 08:49:56;;;;;;;2.20;1.93;;;;;;;;;;5104888;28;20416;-85
2020/12/25 08:52:22;;;;;;;4.30;3.07;;;;;;;;;;5105984;28;20443;-85
2020/12/25 08:54:58;;;;;;;3.83;2.50;;;;;;;;;;5097875;28;20417;-85
2020/12/25 08:57:24;;;;;;;2.77;2.27;;;;;;;;;;5099245;28;20971;-84
2020/12/25 09:00:12;;;;;;;3.50;2.30;;;;;;;;;;5102829;28;20523;-85
2020/12/25 09:02:39;;;;;;;3.00;2.30;;;;;;;;;;5100391;28;20458;-85
2020/12/25 09:05:05;;;;;;;3.60;2.50;;;;;;;;;;5105921;28;20412;-85
2020/12/25 09:07:31;;;;;;;3.53;2.50;;;;;;;;;;5105234;28;20436;-85
2020/12/25 09:09:57;;;;;;;5.30;2.30;;;;;;;;;;5104510;28;20420;-85
2020/12/25 09:12:23;;;;;;;3.20;2.60;;;;;;;;;;5104132;28;20423;-85
2020/12/25 09:14:49;;;;;;;3.70;2.70;;;;;;;;;;5086979;28;20906;-85
2020/12/25 09:17:15;;;;;;;4.10;2.50;;;;;;;;;;5104194;28;20444;-85
2020/12/25 09:19:43;;;;;;;5.00;2.60;;;;;;;;;;5087568;28;20473;-85
2020/12/25 09:22:09;;;;;;;5.87;2.43;;;;;;;;;;5103443;28;20455;-84
2020/12/25 09:24:35;;;;;;;5.33;2.70;;;;;;;;;;5103852;28;20430;-86
2020/12/25 09:27:01;;;;;;;4.07;2.33;;;;;;;;;;5081182;28;20445;-85
2020/12/25 09:29:27;;;;;;;3.90;2.93;;;;;;;;;;5084317;28;20899;-85
2020/12/25 09:31:53;;;;;;;2.73;2.30;;;;;;;;;;5077419;28;20424;-86
2020/12/25 09:34:19;;;;;;;5.40;2.73;;;;;;;;;;5101199;28;20408;-86
2020/12/25 09:36:45;;;;;;;3.60;2.53;;;;;;;;;;5117714;28;20507;-85
2020/12/25 09:39:11;;;;;;;3.10;2.03;;;;;;;;;;5118432;28;20411;-85
2020/12/25 09:41:37;;;;;;;3.97;2.23;;;;;;;;;;5114271;28;20471;-84
2020/12/25 09:44:03;;;;;;;4.10;3.10;;;;;;;;;;5105573;28;20400;-85
2020/12/25 09:46:29;;;;;;;4.57;2.90;;;;;;;;;;5103764;28;20523;-85
2020/12/25 09:48:55;;;;;;;2.80;2.00;;;;;;;;;;5103565;28;20408;-85
2020/12/25 09:51:25;;;;;;;2.17;1.90;;;;;;;;;;5102765;28;20428;-85
2020/12/25 09:53:51;;;;;;;3.00;2.23;;;;;;;;;;5102979;28;20408;-85
2020/12/25 09:56:17;;;;;;;2.47;2.00;;;;;;;;;;5103528;28;20602;-85
2020/12/25 09:58:43;;;;;;;2.93;2.23;;;;;;;;;;5107834;28;20495;-85
2020/12/25 10:01:09;;;;;;;3.03;2.17;;;;;;;;;;5106833;28;20400;-85
2020/12/25 10:03:36;;;;;;;5.53;2.97;;;;;;;;;;5108259;28;20433;-85
2020/12/25 10:06:02;;;;;;;3.17;2.20;;;;;;;;;;5086563;28;20451;-87
2020/12/25 10:08:28;;;;;;;3.20;1.97;;;;;;;;;;5107538;28;20446;-86
2020/12/25 10:10:54;;;;;;;2.60;1.90;;;;;;;;;;5107461;28;20924;-85
2020/12/25 10:13:20;;;;;;;2.83;1.93;;;;;;;;;;5105860;28;20431;-85
2020/12/25 10:15:46;;;;;;;3.60;2.70;;;;;;;;;;5107705;28;20440;-85
2020/12/25 10:18:12;;;;;;;4.30;2.50;;;;;;;;;;5107421;28;20427;-85
2020/12/25 10:20:38;;;;;;;2.20;1.83;;;;;;;;;;5108596;28;20454;-85
2020/12/25 10:23:04;;;;;;;3.70;2.17;;;;;;;;;;5102123;28;20546;-85
2020/12/25 10:25:30;;;;;;;3.83;2.20;;;;;;;;;;5098324;28;20438;-85
2020/12/25 10:27:56;;;;;;;2.57;1.63;;;;;;;;;;5104234;28;20445;-85
2020/12/25 10:30:22;;;;;;;1.90;1.70;;;;;;;;;;5103448;28;20462;-85
2020/12/25 10:32:48;;;;;;;1.93;1.40;;;;;;;;;;5101011;28;20428;-85
2020/12/25 10:35:14;;;;;;;2.70;2.17;;;;;;;;;;5101128;28;20458;-84
2020/12/25 10:37:40;;;;;;;1.80;1.53;;;;;;;;;;5100179;28;20827;-85
2020/12/25 10:40:06;;;;;;;2.80;1.70;;;;;;;;;;5102576;28;20416;-85
2020/12/25 10:42:32;;;;;;;2.90;1.63;;;;;;;;;;5100349;28;20456;-85
2020/12/25 10:44:58;;;;;;;2.40;1.60;;;;;;;;;;5102350;28;20899;-85
2020/12/25 10:47:24;;;;;;;1.63;1.03;;;;;;;;;;5100234;28;20451;-85
2020/12/25 10:49:50;;;;;;;3.40;1.70;;;;;;;;;;5100702;28;20422;-85
2020/12/25 10:52:16;;;;;;;2.90;1.60;;;;;;;;;;5082860;28;20439;-84
2020/12/25 10:54:42;;;;;;;2.23;1.70;;;;;;;;;;5100085;28;20424;-85
2020/12/25 10:57:08;;;;;;;2.37;1.90;;;;;;;;;;5101205;28;20495;-84
2020/12/25 10:59:34;;;;;;;2.63;1.90;;;;;;;;;;5100857;28;20844;-85
2020/12/25 11:02:00;;;;;;;2.40;1.73;;;;;;;;;;5099562;28;20473;-85
2020/12/25 11:04:26;;;;;;;3.10;2.07;;;;;;;;;;5100579;28;20748;-85
2020/12/25 11:06:52;;;;;;;2.80;1.90;;;;;;;;;;5095342;28;20444;-85
2020/12/25 11:09:18;;;;;;;2.37;1.90;;;;;;;;;;5099766;28;20431;-85
2020/12/25 11:11:44;;;;;;;2.83;1.80;;;;;;;;;;5100929;28;20428;-85
2020/12/25 11:14:12;;;;;;;2.20;1.70;;;;;;;;;;5101785;28;20420;-84
2020/12/25 11:16:39;;;;;;;3.20;2.40;;;;;;;;;;5099630;28;20519;-85
2020/12/25 11:19:08;;;;;;;2.00;1.73;;;;;;;;;;5101567;28;20803;-84
2020/12/25 11:21:34;;;;;;;1.70;1.50;;;;;;;;;;5100540;28;20479;-85
2020/12/25 11:24:01;;;;;;;3.40;1.87;;;;;;;;;;5102357;28;20404;-84
2020/12/25 11:26:28;;;;;;;2.93;2.03;;;;;;;;;;5099932;28;20432;-85
2020/12/25 11:28:56;;;;;;;2.50;1.73;;;;;;;;;;5101220;28;20400;-84
2020/12/25 11:31:22;;;;;;;2.60;1.90;;;;;;;;;;5080250;28;20786;-85
2020/12/25 11:33:48;;;;;;;3.10;2.20;;;;;;;;;;5100863;28;20428;-84
2020/12/25 11:36:18;;;;;;;3.30;2.30;;;;;;;;;;5104067;28;20436;-85
2020/12/25 11:38:44;;;;;;;3.70;2.03;;;;;;;;;;5103697;28;20424;-85
2020/12/25 11:41:11;;;;;;;3.63;2.40;;;;;;;;;;5102195;28;20480;-85
2020/12/25 11:43:38;;;;;;;2.80;2.10;;;;;;;;;;5101473;28;20416;-85
2020/12/25 11:46:04;;;;;;;5.03;2.73;;;;;;;;;;5103020;28;20420;-85
2020/12/25 11:48:30;;;;;;;3.07;2.00;;;;;;;;;;5103097;28;20854;-85
2020/12/25 11:50:57;;;;;;;2.63;2.20;;;;;;;;;;5104486;28;20396;-85
2020/12/25 11:53:23;;;;;;;3.47;1.97;;;;;;;;;;5104554;28;20424;-85
2020/12/25 11:55:49;;;;;;;3.70;2.80;;;;;;;;;;5114526;28;20400;-84
2020/12/25 11:58:15;;;;;;;5.50;2.73;;;;;;;;;;5109743;28;20514;-87
2020/12/25 12:00:42;;;;;;;3.20;2.90;;;;;;;;;;5104500;28;20420;-85
2020/12/25 12:03:08;;;;;;;5.20;2.93;;;;;;;;;;5104938;28;20488;-85
2020/12/25 12:05:34;;;;;;;4.10;2.97;;;;;;;;;;5105730;28;20408;-86
2020/12/25 12:08:00;;;;;;;4.07;2.77;;;;;;;;;;5102479;28;20420;-85
2020/12/25 12:10:26;;;;;;;2.63;2.37;;;;;;;;;;5100380;28;20405;-84
2020/12/25 12:12:52;;;;;;;3.20;2.43;;;;;;;;;;5100924;28;20432;-85
2020/12/25 12:15:18;;;;;;;4.73;2.70;;;;;;;;;;5099914;28;20430;-85
2020/12/25 12:17:44;;;;;;;3.60;3.00;;;;;;;;;;5099837;28;20508;-85
2020/12/25 12:20:10;;;;;;;3.57;3.17;;;;;;;;;;5095696;28;20400;-85
2020/12/25 12:22:36;;;;;;;3.37;2.63;;;;;;;;;;5078446;28;20460;-85
2020/12/25 12:25:05;;;;;;;4.73;3.43;;;;;;;;;;5077248;28;20477;-85
2020/12/25 12:27:32;;;;;;;4.67;2.80;;;;;;;;;;5082682;28;20440;-84
2020/12/25 12:29:58;;;;;;;5.03;3.30;;;;;;;;;;5096625;28;20791;-84
2020/12/25 12:32:24;;;;;;;3.40;2.70;;;;;;;;;;5099122;28;20423;-86
2020/12/25 12:34:50;;;;;;;4.53;3.23;;;;;;;;;;5098083;28;20859;-85
2020/12/25 12:37:16;;;;;;;4.00;2.87;;;;;;;;;;5097033;28;20447;-85
2020/12/25 12:39:42;;;;;;;4.90;3.10;;;;;;;;;;5100411;28;20396;-85
2020/12/25 12:42:08;;;;;;;5.07;3.87;;;;;;;;;;5082292;28;20448;-85
2020/12/25 12:44:34;;;;;;;3.80;3.03;;;;;;;;;;5106034;28;20408;-86
2020/12/25 12:47:00;;;;;;;4.43;3.43;;;;;;;;;;5104899;28;20424;-86
2020/12/25 12:49:26;;;;;;;3.17;2.87;;;;;;;;;;5117865;28;20446;-85
2020/12/25 12:51:52;;;;;;;6.00;3.43;;;;;;;;;;5116200;28;20388;-88
2020/12/25 12:54:18;;;;;;;7.60;3.00;;;;;;;;;;5112027;28;20480;-85
2020/12/25 12:56:44;;;;;;;4.53;3.33;;;;;;;;;;5104676;28;20503;-85
2020/12/25 12:59:10;;;;;;;4.30;2.93;;;;;;;;;;5102417;28;20428;-85
2020/12/25 13:01:37;;;;;;;5.27;3.10;;;;;;;;;;5103461;28;20455;-85
2020/12/25 13:04:03;;;;;;;6.50;4.07;;;;;;;;;;5101551;28;20431;-85
2020/12/25 13:06:29;;;;;;;5.30;3.50;;;;;;;;;;5103234;28;20416;-85
2020/12/25 13:08:55;;;;;;;4.40;2.77;;;;;;;;;;5099910;28;20420;-85
2020/12/25 13:11:28;;;;;;;4.43;3.60;;;;;;;;;;5095533;28;20435;-85
2020/12/25 13:13:54;;;;;;;4.20;2.90;;;;;;;;;;5076020;28;20428;-85
2020/12/25 13:16:20;;;;;;;2.93;2.63;;;;;;;;;;5094029;28;20420;-84
2020/12/25 13:18:47;;;;;;;3.73;2.70;;;;;;;;;;5091151;28;20419;-84
2020/12/25 13:21:18;;;;;;;5.37;3.57;;;;;;;;;;5094063;28;20389;-84
2020/12/25 13:23:44;;;;;;;5.00;3.90;;;;;;;;;;5096195;28;20413;-85
2020/12/25 13:26:10;;;;;;;5.53;4.27;;;;;;;;;;5101890;28;20424;-85
2020/12/25 13:28:36;;;;;;;3.70;3.00;;;;;;;;;;5099860;28;20429;-84
2020/12/25 13:31:02;;;;;;;4.87;3.10;;;;;;;;;;5078860;28;20745;-84
2020/12/25 13:33:28;;;;;;;4.70;3.37;;;;;;;;;;5114187;28;20462;-85
2020/12/25 13:35:54;;;;;;;4.87;3.30;;;;;;;;;;5106556;28;20444;-85
2020/12/25 13:38:21;;;;;;;9.33;3.97;;;;;;;;;;5090155;28;20448;-85
2020/12/25 13:40:47;;;;;;;4.20;3.10;;;;;;;;;;5108246;28;20953;-85
2020/12/25 13:43:13;;;;;;;4.80;3.30;;;;;;;;;;5105160;28;20482;-85
2020/12/25 13:45:39;;;;;;;7.20;4.17;;;;;;;;;;5106913;28;20507;-85
2020/12/25 13:48:05;;;;;;;5.63;3.97;;;;;;;;;;5107246;28;20420;-85
2020/12/25 13:50:31;;;;;;;6.67;4.10;;;;;;;;;;5108441;28;20419;-85
2020/12/25 13:52:57;;;;;;;5.80;3.80;;;;;;;;;;5107688;28;20396;-86
2020/12/25 13:55:23;;;;;;;5.00;3.80;;;;;;;;;;5106168;28;20419;-85
2020/12/25 13:57:51;;;;;;;5.20;3.20;;;;;;;;;;5089126;28;20450;-85
2020/12/25 14:00:17;;;;;;;7.23;3.90;;;;;;;;;;5092489;28;20923;-85
2020/12/25 14:02:43;;;;;;;4.73;3.97;;;;;;;;;;5091931;28;20466;-85
2020/12/25 14:05:09;;;;;;;4.90;3.70;;;;;;;;;;5109050;28;20892;-85
2020/12/25 14:07:35;;;;;;;6.07;3.60;;;;;;;;;;5109192;28;20418;-85
2020/12/25 14:10:01;;;;;;;6.60;3.87;;;;;;;;;;5106755;28;20790;-86
2020/12/25 14:12:27;;;;;;;7.30;4.73;;;;;;;;;;5106282;28;20503;-85
2020/12/25 14:14:53;;;;;;;5.10;3.70;;;;;;;;;;5108425;28;20967;-85
2020/12/25 14:17:19;;;;;;;5.10;4.00;;;;;;;;;;5096720;22;21086;-72
2020/12/25 14:19:45;;;;;;;4.63;3.33;;;;;;;;;;5075323;28;20443;-72
2020/12/25 14:22:11;;;;;;;5.20;3.73;;;;;;;;;;5075855;28;20814;-73
2020/12/25 14:24:37;;;;;;;3.80;3.43;;;;;;;;;;5078613;28;20413;-73
2020/12/25 14:27:03;;;;;;;7.83;4.10;;;;;;;;;;5096156;28;20879;-72
2020/12/25 14:29:29;;;;;;;3.83;3.37;;;;;;;;;;5076022;28;20518;-73
2020/12/25 14:31:55;;;;;;;6.00;3.40;;;;;;;;;;5096044;28;20855;-72
2020/12/25 14:34:22;;;;;;;5.30;3.57;;;;;;;;;;5094687;28;20410;-73
2020/12/25 14:36:51;;;;;;;3.93;3.20;;;;;;;;;;5077809;28;20443;-73
2020/12/25 14:39:17;;;;;;;4.50;3.70;;;;;;;;;;5094973;28;20833;-75